Terminal Aerodrome Forecast
Issued by NWS Cleveland, OH

Home | Current Version | Previous Version | Text Only | Print | Product List | Glossary Off
Versions: 1 2 3 4 5 6 7 8 9 10 11 12 13 14 15 16 17 18 19

000
FTUS41 KCLE 202208 AAB
TAFERI
TAF AMD
KERI 202208Z 2022/2118 08005KT P6SM VCTS SCT007 OVC035CB
      TEMPO 2022/2102 VRB15G30KT 1SM TSRA OVC025CB
     FM210600 24012G20KT P6SM SCT020 BKN080
     FM211100 25012KT P6SM BKN020=

USA.gov is the U.S. government's official web portal to all federal, state and local government web resources and services.